1:23:50 AM (GMT+1) Terms of use Monday, December 5, 2016
Skip Navigation Links Search:
Bernhard Isemann
Last heard stationTime
PA4TW05-Dec-2016 01:23:46
EHAM05-Dec-2016 01:23:22
PE1OHF05-Dec-2016 01:23:19
PA3DFN-B05-Dec-2016 01:23:14
PE4KH-105-Dec-2016 01:23:06
PD3RFR-1305-Dec-2016 01:23:05
PI1VBK05-Dec-2016 01:22:46
PE1IAA-805-Dec-2016 01:22:36
OE1XTK05-Dec-2016 01:22:15
PD1LVK-B05-Dec-2016 01:22:11
OE3ILW-305-Dec-2016 01:22:06
PD0R-1005-Dec-2016 01:22:00
PD1DER-C05-Dec-2016 01:21:54
OE3ACS-205-Dec-2016 01:21:48
PD3RVH-C05-Dec-2016 01:21:46
PA4TW-B05-Dec-2016 01:21:39
PA3HV05-Dec-2016 01:21:38
PD0NUW-B05-Dec-2016 01:21:37
PD1DDK05-Dec-2016 01:21:26
OE3ZK05-Dec-2016 01:21:19
PA4TW-1005-Dec-2016 01:21:07
PD3RFR-1005-Dec-2016 01:21:05
Data information detail
SenderPA4TW
ReportTime12/5/2016 1:23:46 AM
PathqAS,PA4TW-2
NodeaprsNL
Latitude52.2713333333333
Longitude5.1675
PHG 
RNG 
DFS 
Course0
Speed0
Altitude0
Symbol/r
Holocratic Packet Radio Systems